Terminal Aerodrome Forecast
Issued by NWS Shreveport, LA

Home | Current Version | Previous Version | Text Only | Print | Product List | Glossary On
Versions: 1 2 3 4 5 6 7 8 9 10 11 12 13 14 15 16 17 18 19 20 21 22 23
190
FTUS44 KSHV 300547
TAFSHV
TAF
KSHV 300547Z 3006/3106 VRB06KT P6SM FEW050 BKN180 BKN250
     FM300800 VRB06KT P6SM BKN050
     FM301400 14005KT P6SM SCT140 SCT250
     FM301600 15005KT P6SM SCT050 BKN180
     FM302000 07004KT P6SM BKN050 BKN150
     FM310100 16003KT P6SM BKN050 OVC150
     FM310500 00000KT P6SM VCSH BKN045 OVC090=

USA.gov is the U.S. government's official web portal to all federal, state and local government web resources and services.